createdAt,value
2018-02-09T00:02:07.438Z,42.60
2018-02-09T00:04:35.469Z,42.40
2018-02-09T00:07:04.241Z,41.90
2018-02-09T00:09:32.421Z,45.90
2018-02-09T00:12:00.525Z,46.03
2018-02-09T00:14:29.251Z,45.60
2018-02-09T00:16:57.369Z,47.20
2018-02-09T00:19:25.397Z,48.77
2018-02-09T00:21:53.413Z,47.60
2018-02-09T00:24:22.312Z,46.03
2018-02-09T00:26:51.050Z,47.37
2018-02-09T00:29:19.037Z,47.23
2018-02-09T00:31:47.209Z,45.80
2018-02-09T00:34:15.219Z,45.10
2018-02-09T00:36:43.969Z,45.60
2018-02-09T00:39:12.129Z,46.30
2018-02-09T00:41:40.157Z,44.63
2018-02-09T00:44:08.938Z,43.43
2018-02-09T00:46:37.829Z,43.23
2018-02-09T00:49:06.034Z,43.40
2018-02-09T00:51:34.080Z,44.90
2018-02-09T00:54:02.938Z,44.23
2018-02-09T00:56:32.861Z,46.80
2018-02-09T00:59:00.836Z,45.03
2018-02-09T01:01:28.946Z,47.20
2018-02-09T01:03:57.674Z,47.00
2018-02-09T01:06:25.657Z,44.57
2018-02-09T01:08:53.897Z,45.03
2018-02-09T01:11:21.950Z,46.33
2018-02-09T01:13:50.813Z,44.73
2018-02-09T01:16:18.945Z,43.40
2018-02-09T01:18:46.968Z,44.13
2018-02-09T01:21:15.058Z,46.07
2018-02-09T01:23:43.912Z,42.60
2018-02-09T01:26:11.898Z,45.20
2018-02-09T01:28:39.879Z,41.63
2018-02-09T01:31:08.025Z,43.40
2018-02-09T01:33:36.045Z,42.97
2018-02-09T01:36:04.778Z,43.80
2018-02-09T01:38:32.895Z,45.57
2018-02-09T01:41:01.724Z,43.90
2018-02-09T01:43:29.752Z,45.00
2018-02-09T01:45:58.616Z,46.27
2018-02-09T01:48:26.633Z,44.10
2018-02-09T01:50:55.520Z,47.93
2018-02-09T01:53:24.404Z,47.70
2018-02-09T01:55:53.160Z,48.90
2018-02-09T01:58:21.148Z,48.90
2018-02-09T02:00:50.086Z,46.20
2018-02-09T02:03:18.088Z,47.80
2018-02-09T02:05:46.072Z,47.53
2018-02-09T02:08:14.340Z,50.60
2018-02-09T02:10:42.348Z,46.50
2018-02-09T02:13:11.064Z,47.30
2018-02-09T02:15:39.192Z,46.03
2018-02-09T02:18:07.180Z,49.17
2018-02-09T02:20:35.900Z,49.87
2018-02-09T02:23:04.061Z,48.73
2018-02-09T02:25:32.046Z,47.30
2018-02-09T02:28:00.038Z,45.20
2018-02-09T02:30:28.185Z,48.77
2018-02-09T02:32:56.275Z,48.00
2018-02-09T02:35:24.308Z,51.20
2018-02-09T02:37:53.172Z,49.50
2018-02-09T02:40:21.188Z,44.83
2018-02-09T02:42:49.218Z,48.97
2018-02-09T02:45:17.353Z,49.97
2018-02-09T02:47:45.332Z,49.57
2018-02-09T02:50:13.349Z,47.77
2018-02-09T02:52:42.465Z,47.97
2018-02-09T02:55:11.193Z,48.37
2018-02-09T02:57:39.217Z,48.07
2018-02-09T03:00:08.109Z,47.00
2018-02-09T03:02:36.829Z,46.80
2018-02-09T03:05:04.825Z,47.03
2018-02-09T03:07:32.962Z,48.07
2018-02-09T03:10:00.945Z,49.40
2018-02-09T03:12:28.965Z,50.73
2018-02-09T03:14:57.097Z,45.93
2018-02-09T03:17:25.126Z,49.27
2018-02-09T03:19:53.844Z,50.10
2018-02-09T03:22:21.941Z,52.90
2018-02-09T03:24:49.961Z,50.40
2018-02-09T03:27:18.717Z,46.77
2018-02-09T03:29:46.824Z,50.70
2018-02-09T03:32:15.676Z,49.47
2018-02-09T03:34:43.665Z,47.97
2018-02-09T03:37:11.777Z,49.67
2018-02-09T03:39:39.772Z,45.87
2018-02-09T03:42:07.804Z,45.70
2018-02-09T03:44:36.662Z,45.70
2018-02-09T04:00:11.596Z,47.00
2018-02-09T04:02:39.599Z,44.80
2018-02-09T04:05:08.333Z,45.70
2018-02-09T04:07:36.489Z,43.10
2018-02-09T04:10:04.512Z,42.17
2018-02-09T04:12:32.628Z,43.60
2018-02-09T04:15:00.728Z,43.50
2018-02-09T04:17:28.869Z,45.63
2018-02-09T04:19:56.880Z,49.40
2018-02-09T04:22:25.033Z,49.10
2018-02-09T04:24:53.054Z,48.33
2018-02-09T04:27:21.080Z,46.87
2018-02-09T04:29:49.244Z,47.87
2018-02-09T04:32:20.405Z,50.23
2018-02-09T04:43:28.185Z,52.13
2018-02-09T04:45:56.949Z,53.93
2018-02-09T04:48:24.972Z,55.20
2018-02-09T04:50:52.995Z,53.73
2018-02-09T04:53:21.150Z,54.40
2018-02-09T04:55:49.188Z,53.70
2018-02-09T04:58:17.182Z,53.83
2018-02-09T05:00:45.535Z,56.13
2018-02-09T05:03:13.512Z,54.33
2018-02-09T05:05:41.515Z,56.97
2018-02-09T05:08:09.665Z,54.87
2018-02-09T05:10:37.689Z,56.10
2018-02-09T05:13:05.709Z,53.97
2018-02-09T05:15:33.862Z,55.77
2018-02-09T05:18:01.881Z,55.23
2018-02-09T05:20:29.869Z,53.40
2018-02-09T05:22:58.053Z,55.70
2018-02-09T05:25:26.041Z,55.67
2018-02-09T05:27:54.793Z,54.83
2018-02-09T05:30:22.953Z,56.10
2018-02-09T05:32:50.976Z,57.73
2018-02-09T05:35:19.713Z,56.27
2018-02-09T05:37:48.105Z,55.63
2018-02-09T05:40:16.341Z,56.53
2018-02-09T05:42:45.480Z,52.73
2018-02-09T05:45:13.902Z,54.10
2018-02-09T05:47:42.104Z,55.13
2018-02-09T05:50:10.121Z,53.10
2018-02-09T05:52:38.229Z,53.47
2018-02-09T05:55:06.207Z,54.00
2018-02-09T05:57:34.184Z,55.57
2018-02-09T06:00:02.304Z,53.53
2018-02-09T06:02:30.437Z,53.97
2018-02-09T06:04:58.453Z,56.17
2018-02-09T06:07:26.592Z,55.30
2018-02-09T06:09:54.606Z,55.73
2018-02-09T06:12:22.698Z,53.20
2018-02-09T06:14:51.588Z,52.20
2018-02-09T06:17:20.343Z,53.00
2018-02-09T06:19:48.341Z,53.93
2018-02-09T06:22:17.207Z,54.10
2018-02-09T06:24:45.245Z,55.83
2018-02-09T06:27:13.237Z,61.23
2018-02-09T06:29:41.443Z,57.43
2018-02-09T06:32:09.544Z,57.20
2018-02-09T06:34:38.305Z,61.60
2018-02-09T06:37:06.453Z,59.73
2018-02-09T06:39:35.046Z,60.57
2018-02-09T06:42:03.156Z,59.17
2018-02-09T06:44:32.026Z,56.27
2018-02-09T06:47:00.000Z,60.00
2018-02-09T06:49:28.016Z,60.20
2018-02-09T06:51:56.624Z,58.30
2018-02-09T06:54:26.089Z,57.97
2018-02-09T06:56:54.102Z,64.43
2018-02-09T06:59:22.224Z,67.90
2018-02-09T07:01:51.033Z,65.40
2018-02-09T07:04:19.992Z,66.27
2018-02-09T07:06:48.222Z,67.30
2018-02-09T07:09:16.345Z,66.60
2018-02-09T07:11:44.436Z,66.13
2018-02-09T07:14:13.281Z,65.50
2018-02-09T07:16:41.261Z,61.13
2018-02-09T07:19:09.240Z,61.80
2018-02-09T07:21:37.460Z,64.57
2018-02-09T07:24:07.197Z,59.70
2018-02-09T07:26:35.545Z,57.83
2018-02-09T07:29:15.547Z,62.27
2018-02-09T07:31:50.151Z,58.93
2018-02-09T07:34:18.744Z,62.30
2018-02-09T07:36:46.761Z,62.10
2018-02-09T07:39:15.493Z,62.00
2018-02-09T07:41:43.741Z,60.73
2018-02-09T07:44:12.489Z,59.30
2018-02-09T07:46:40.485Z,57.17
2018-02-09T07:49:09.369Z,62.83
2018-02-09T07:51:37.465Z,59.40
2018-02-09T07:54:06.229Z,60.20
2018-02-09T07:56:34.476Z,60.20
2018-02-09T07:59:02.483Z,58.10
2018-02-09T08:01:30.976Z,52.87
2018-02-09T08:03:59.156Z,56.63
2018-02-09T08:06:28.037Z,56.90
2018-02-09T08:08:56.837Z,55.90
2018-02-09T08:11:28.064Z,55.07
2018-02-09T08:13:56.081Z,55.00
2018-02-09T08:16:24.110Z,56.73
2018-02-09T08:18:52.238Z,56.27
2018-02-09T08:21:20.273Z,52.33
2018-02-09T08:23:49.026Z,54.13
2018-02-09T08:26:17.185Z,54.07
2018-02-09T08:28:45.380Z,51.23
2018-02-09T08:31:14.153Z,53.90
2018-02-09T08:33:42.330Z,51.00
2018-02-09T08:36:10.329Z,50.60
2018-02-09T08:38:38.317Z,51.30
2018-02-09T08:41:07.253Z,49.30
2018-02-09T08:43:35.291Z,48.43
2018-02-09T08:46:03.493Z,51.60
2018-02-09T08:48:31.623Z,49.50
2018-02-09T08:51:00.389Z,47.30
2018-02-09T08:53:28.393Z,47.27
2018-02-09T08:55:57.276Z,48.90
2018-02-09T08:58:26.013Z,44.87
2018-02-09T09:00:54.087Z,45.20
2018-02-09T09:03:22.261Z,45.77
2018-02-09T09:05:50.301Z,44.50
2018-02-09T09:08:19.218Z,43.80
2018-02-09T09:10:47.361Z,40.23
2018-02-09T09:13:16.097Z,47.07
2018-02-09T09:15:44.132Z,46.60
2018-02-09T09:18:12.267Z,42.83
2018-02-09T09:20:40.257Z,45.80
2018-02-09T09:23:09.020Z,45.10
2018-02-09T09:25:37.177Z,45.00
2018-02-09T09:28:05.190Z,46.07
2018-02-09T09:30:33.933Z,43.47
2018-02-09T09:33:02.113Z,46.67
2018-02-09T09:35:30.133Z,45.40
2018-02-09T09:37:58.861Z,45.37
2018-02-09T09:40:27.016Z,46.37
2018-02-09T09:42:55.110Z,47.37
2018-02-09T09:45:23.124Z,45.53
2018-02-09T09:47:51.231Z,45.93
2018-02-09T09:50:19.976Z,47.27
2018-02-09T09:52:48.012Z,47.90
2018-02-09T09:55:16.164Z,45.60
2018-02-09T09:57:44.941Z,46.93
2018-02-09T10:00:13.842Z,45.50
2018-02-09T10:02:42.769Z,46.33
2018-02-09T10:05:10.764Z,43.70
2018-02-09T10:07:38.767Z,45.50
2018-02-09T10:10:07.036Z,48.27
2018-02-09T10:12:35.036Z,45.33
2018-02-09T10:15:03.803Z,35.57
2018-02-09T10:17:31.916Z,43.40
2018-02-09T10:19:59.962Z,46.30
2018-02-09T10:22:28.760Z,42.70
2018-02-09T10:24:57.663Z,43.30
2018-02-09T10:27:25.656Z,39.00
2018-02-09T10:29:53.713Z,36.27
2018-02-09T10:32:21.892Z,37.23
2018-02-09T10:34:49.933Z,34.77
2018-02-09T10:37:18.685Z,30.43
2018-02-09T10:39:46.834Z,37.63
2018-02-09T10:42:14.983Z,38.47
2018-02-09T10:44:43.730Z,34.27
2018-02-09T10:47:11.901Z,37.30
2018-02-09T10:49:40.024Z,30.50
2018-02-09T10:52:08.095Z,26.53
2018-02-09T10:54:36.212Z,22.80
2018-02-09T10:57:04.270Z,22.40
2018-02-09T10:59:32.272Z,28.60
2018-02-09T11:02:00.526Z,28.10
2018-02-09T11:04:28.535Z,27.70
2018-02-09T11:06:56.745Z,29.60
2018-02-09T11:09:30.396Z,28.43
2018-02-09T11:12:02.741Z,27.40
2018-02-09T11:14:30.789Z,29.23
2018-02-09T11:16:58.803Z,31.97
2018-02-09T11:19:26.874Z,26.50
2018-02-09T11:21:55.030Z,29.07
2018-02-09T11:24:23.066Z,32.00
2018-02-09T11:26:51.836Z,30.60
2018-02-09T11:29:20.005Z,27.30
2018-02-09T11:31:48.172Z,27.57
2018-02-09T11:34:16.213Z,32.10
2018-02-09T11:36:44.340Z,31.83
2018-02-09T11:39:13.080Z,30.17
2018-02-09T11:41:41.130Z,33.47
2018-02-09T11:44:09.301Z,31.80
2018-02-09T11:46:37.316Z,31.70
2018-02-09T11:49:05.364Z,33.93
2018-02-09T11:51:33.597Z,31.67
2018-02-09T11:54:02.340Z,32.03
2018-02-09T11:56:30.353Z,31.30
2018-02-09T11:58:58.534Z,32.67
2018-02-09T12:01:26.675Z,28.97
2018-02-09T12:03:54.698Z,31.03
2018-02-09T12:06:23.592Z,28.40
2018-02-09T12:08:51.637Z,28.23
2018-02-09T12:11:20.502Z,26.33
2018-02-09T12:13:48.795Z,27.20
2018-02-09T12:16:16.953Z,28.90
2018-02-09T12:18:46.868Z,27.17
2018-02-09T12:21:15.972Z,26.40
2018-02-09T12:23:43.964Z,31.20
2018-02-09T12:26:12.022Z,26.07
2018-02-09T12:28:40.185Z,27.60
2018-02-09T12:31:08.214Z,30.20
2018-02-09T12:33:36.285Z,26.67
2018-02-09T12:36:04.408Z,29.80
2018-02-09T12:38:32.452Z,30.33
2018-02-09T12:41:00.556Z,31.93
2018-02-09T12:43:28.729Z,31.50
2018-02-09T12:45:56.751Z,31.87
2018-02-09T12:48:24.802Z,29.80
2018-02-09T12:50:53.006Z,28.47
2018-02-09T12:53:21.461Z,29.77
2018-02-09T12:55:50.254Z,27.37
2018-02-09T12:58:19.165Z,26.77
2018-02-09T13:00:47.229Z,29.43
2018-02-09T13:03:16.024Z,25.13
2018-02-09T13:05:44.908Z,26.30
2018-02-09T13:08:13.708Z,22.83
2018-02-09T13:10:41.716Z,26.03
2018-02-09T13:13:11.859Z,26.50
2018-02-09T13:15:40.071Z,23.70
2018-02-09T13:18:09.151Z,26.30
2018-02-09T13:20:38.133Z,23.07
2018-02-09T13:23:17.550Z,26.00
2018-02-09T13:25:45.773Z,27.40
2018-02-09T13:28:25.990Z,31.50
2018-02-09T13:30:54.333Z,24.47
2018-02-09T13:33:28.892Z,25.80
2018-02-09T13:35:56.914Z,26.13
2018-02-09T13:38:25.716Z,27.13
2018-02-09T13:40:53.849Z,28.27
2018-02-09T13:43:22.066Z,24.97
2018-02-09T13:45:50.107Z,26.50
2018-02-09T13:48:18.892Z,27.00
2018-02-09T13:50:47.186Z,26.23
2018-02-09T13:53:15.939Z,25.77
2018-02-09T13:55:43.987Z,25.90
2018-02-09T13:58:12.200Z,25.43
2018-02-09T14:00:40.255Z,26.07
2018-02-09T14:03:08.302Z,27.03
2018-02-09T14:05:36.421Z,28.93
2018-02-09T14:08:04.448Z,28.57
2018-02-09T14:10:32.512Z,26.80
2018-02-09T14:13:00.646Z,29.03
2018-02-09T14:15:29.428Z,28.77
2018-02-09T14:17:57.622Z,26.47
2018-02-09T14:20:26.514Z,28.87
2018-02-09T14:22:55.363Z,29.07
2018-02-09T14:25:23.413Z,28.20
2018-02-09T14:27:51.576Z,30.80
2018-02-09T14:30:19.576Z,29.43
2018-02-09T14:32:47.619Z,29.80
2018-02-09T14:35:15.806Z,29.03
2018-02-09T14:37:43.896Z,31.00
2018-02-09T14:40:11.947Z,29.37
2018-02-09T14:42:40.108Z,29.73
2018-02-09T14:45:08.112Z,29.53
2018-02-09T14:47:36.115Z,32.27
2018-02-09T14:50:04.308Z,29.33
2018-02-09T14:52:33.078Z,30.87
2018-02-09T14:55:01.250Z,27.20
2018-02-09T14:57:29.578Z,27.63
2018-02-09T14:59:57.623Z,27.83
2018-02-09T15:02:26.396Z,29.27
2018-02-09T15:04:54.581Z,24.40
2018-02-09T15:07:23.323Z,25.43
2018-02-09T15:09:51.330Z,26.80
2018-02-09T15:12:19.474Z,27.90
2018-02-09T15:14:47.508Z,27.93
2018-02-09T15:17:16.327Z,28.07
2018-02-09T15:19:44.625Z,29.20
2018-02-09T15:22:12.688Z,28.73
2018-02-09T15:24:40.732Z,26.63
2018-02-09T15:27:08.879Z,28.00
2018-02-09T15:29:37.662Z,29.23
2018-02-09T15:32:06.490Z,27.53
2018-02-09T15:34:34.621Z,27.77
2018-02-09T15:37:02.674Z,25.83
2018-02-09T15:39:30.697Z,27.23
2018-02-09T15:41:58.893Z,25.77
2018-02-09T15:44:26.920Z,25.23
2018-02-09T15:46:55.673Z,22.70
2018-02-09T15:49:23.846Z,24.13
2018-02-09T15:51:51.881Z,22.27
2018-02-09T15:54:19.871Z,22.83
2018-02-09T15:56:47.996Z,22.70
2018-02-09T15:59:16.029Z,24.73
2018-02-09T16:01:44.126Z,25.30
2018-02-09T16:04:12.292Z,24.63
2018-02-09T16:06:40.346Z,24.40
2018-02-09T16:09:08.354Z,23.13
2018-02-09T16:11:36.631Z,25.83
2018-02-09T16:14:04.646Z,21.50
2018-02-09T16:16:32.698Z,20.53
2018-02-09T16:19:01.553Z,21.40
2018-02-09T16:21:29.722Z,21.90
2018-02-09T16:23:57.717Z,19.97
2018-02-09T16:26:25.903Z,20.83
2018-02-09T16:28:54.657Z,20.60
2018-02-09T16:31:22.699Z,21.33
2018-02-09T16:33:50.865Z,19.50
2018-02-09T16:36:18.901Z,21.43
2018-02-09T16:38:46.906Z,19.90
2018-02-09T16:41:15.770Z,21.10
2018-02-09T16:43:43.760Z,20.13
2018-02-09T16:46:12.492Z,20.00
2018-02-09T16:48:40.625Z,21.17
2018-02-09T16:51:08.688Z,22.30
2018-02-09T16:53:37.420Z,19.63
2018-02-09T16:56:05.548Z,19.50
2018-02-09T16:58:34.312Z,20.67
2018-02-09T17:01:02.570Z,19.70
2018-02-09T17:03:30.730Z,21.37
2018-02-09T17:05:58.735Z,20.03
2018-02-09T17:08:26.775Z,20.63
2018-02-09T17:10:54.917Z,21.27
2018-02-09T17:13:22.939Z,21.07
2018-02-09T17:15:50.952Z,21.67
2018-02-09T17:18:19.837Z,20.37
2018-02-09T17:20:48.669Z,21.93
2018-02-09T17:23:16.801Z,20.77
2018-02-09T17:25:45.798Z,22.10
2018-02-09T17:28:14.003Z,21.10
2018-02-09T17:30:42.072Z,21.70
2018-02-09T17:33:10.266Z,22.60
2018-02-09T17:35:38.881Z,20.40
2018-02-09T17:38:06.886Z,19.47
2018-02-09T17:40:37.195Z,18.60
2018-02-09T17:43:05.971Z,20.20
2018-02-09T17:45:34.006Z,20.10
2018-02-09T17:48:02.340Z,22.87
2018-02-09T17:50:31.178Z,22.40
2018-02-09T17:52:59.225Z,23.67
2018-02-09T17:55:27.390Z,22.60
2018-02-09T17:57:56.136Z,24.67
2018-02-09T18:00:24.247Z,24.20
2018-02-09T18:02:53.226Z,23.00
2018-02-09T18:05:21.232Z,24.70
2018-02-09T18:07:49.234Z,26.13
2018-02-09T18:10:17.426Z,28.10
2018-02-09T18:12:45.480Z,26.60
2018-02-09T18:15:13.493Z,25.80
2018-02-09T18:17:43.586Z,30.93
2018-02-09T18:20:11.658Z,26.67
2018-02-09T18:22:40.804Z,26.93
2018-02-09T18:25:09.140Z,27.53
2018-02-09T18:27:37.165Z,36.83
2018-02-09T18:30:05.860Z,32.83
2018-02-09T18:32:34.026Z,28.80
2018-02-09T18:35:02.059Z,32.30
2018-02-09T18:37:31.982Z,28.43
2018-02-09T18:40:00.928Z,32.13
2018-02-09T18:42:29.772Z,32.10
2018-02-09T18:44:58.018Z,30.80
2018-02-09T18:47:26.153Z,30.10
2018-02-09T18:49:54.205Z,30.67
2018-02-09T18:52:22.998Z,32.10
2018-02-09T18:54:52.712Z,32.87
2018-02-09T18:57:21.495Z,34.80
2018-02-09T18:59:50.294Z,33.33
2018-02-09T19:02:18.471Z,34.87
2018-02-09T19:04:46.513Z,34.63
2018-02-09T19:07:14.537Z,33.57
2018-02-09T19:09:42.723Z,33.77
2018-02-09T19:12:10.809Z,33.90
2018-02-09T19:14:38.866Z,35.07
2018-02-09T19:17:07.002Z,38.63
2018-02-09T19:19:35.781Z,36.10
2018-02-09T19:22:04.616Z,40.40
2018-02-09T19:24:32.815Z,39.37
2018-02-09T19:27:01.042Z,43.43
2018-02-09T19:29:29.086Z,42.60
2018-02-09T19:31:58.188Z,41.47
2018-02-09T19:34:27.027Z,45.23
2018-02-09T19:36:55.050Z,42.33
2018-02-09T19:39:23.933Z,42.50
2018-02-09T19:41:52.094Z,45.00
2018-02-09T19:44:20.107Z,46.10
2018-02-09T19:46:49.076Z,49.90
2018-02-09T19:49:17.076Z,54.40
2018-02-09T19:51:45.280Z,56.23
2018-02-09T19:54:13.400Z,51.17
2018-02-09T19:56:42.205Z,55.33
2018-02-09T19:59:10.939Z,55.13
2018-02-09T20:01:39.132Z,58.60
2018-02-09T20:04:07.190Z,56.90
2018-02-09T20:06:35.232Z,58.20
2018-02-09T20:09:03.672Z,56.80
2018-02-09T20:11:31.790Z,57.93
2018-02-09T20:13:59.826Z,60.10
2018-02-09T20:16:27.948Z,61.17
2018-02-09T20:18:55.976Z,62.30
2018-02-09T20:21:24.637Z,61.97
2018-02-09T20:23:52.800Z,66.23
2018-02-09T20:26:20.828Z,66.07
2018-02-09T20:28:49.768Z,67.40
2018-02-09T20:31:17.937Z,65.77
2018-02-09T20:33:46.759Z,62.77
2018-02-09T20:36:14.802Z,64.27
2018-02-09T20:38:42.967Z,68.70
2018-02-09T20:41:10.956Z,63.63
2018-02-09T20:43:38.980Z,66.67
2018-02-09T20:46:07.142Z,66.00
2018-02-09T20:48:35.884Z,69.40
2018-02-09T20:51:03.939Z,70.17
2018-02-09T20:53:32.108Z,69.80
2018-02-09T20:56:00.100Z,70.80
2018-02-09T20:58:28.101Z,73.10
2018-02-09T21:00:56.289Z,71.60
2018-02-09T21:03:25.075Z,70.30
2018-02-09T21:05:53.826Z,69.30
2018-02-09T21:08:21.994Z,65.87
2018-02-09T21:10:50.021Z,72.20
2018-02-09T21:13:18.755Z,71.30
2018-02-09T21:15:46.893Z,75.70
2018-02-09T21:18:15.623Z,73.83
2018-02-09T21:20:43.612Z,73.97
2018-02-09T21:23:11.802Z,73.50
2018-02-09T21:25:39.799Z,74.07
2018-02-09T21:28:08.542Z,72.20
2018-02-09T21:30:36.818Z,77.33
2018-02-09T21:33:04.813Z,75.00
2018-02-09T21:35:33.563Z,72.23
2018-02-09T21:38:01.685Z,76.90
2018-02-09T21:40:31.458Z,73.40
2018-02-09T21:42:59.504Z,71.20
2018-02-09T21:45:27.604Z,74.17
2018-02-09T21:47:55.631Z,72.53
2018-02-09T21:50:23.627Z,75.10
2018-02-09T21:52:51.788Z,74.77
2018-02-09T21:55:19.794Z,77.70
2018-02-09T21:57:47.820Z,73.47
2018-02-09T22:00:15.998Z,75.20
2018-02-09T22:02:44.006Z,77.23
2018-02-09T22:05:11.999Z,76.00
2018-02-09T22:07:40.189Z,78.97
2018-02-09T22:10:08.184Z,76.20
2018-02-09T22:12:36.180Z,75.23
2018-02-09T22:15:04.342Z,73.93
2018-02-09T22:17:32.367Z,78.43
2018-02-09T22:20:00.364Z,76.63
2018-02-09T22:22:29.252Z,75.23
2018-02-09T22:24:58.020Z,77.37
2018-02-09T22:27:26.070Z,80.47
2018-02-09T22:29:54.230Z,76.37
2018-02-09T22:32:22.388Z,77.67
2018-02-09T22:34:50.398Z,77.73
2018-02-09T22:37:18.569Z,78.17
2018-02-09T22:39:46.574Z,79.90
2018-02-09T22:42:15.426Z,80.53
2018-02-09T22:44:43.578Z,82.23
2018-02-09T22:47:11.601Z,80.07
2018-02-09T22:49:39.698Z,79.60
2018-02-09T22:52:08.623Z,80.00
2018-02-09T22:54:36.625Z,78.40
2018-02-09T22:57:04.624Z,76.33
2018-02-09T22:59:33.537Z,79.63
2018-02-09T23:02:01.604Z,73.47
2018-02-09T23:04:29.596Z,76.63
2018-02-09T23:06:57.785Z,72.47
2018-02-09T23:09:25.825Z,72.37
2018-02-09T23:11:53.895Z,73.67
2018-02-09T23:14:22.049Z,75.53
2018-02-09T23:16:50.816Z,78.10
2018-02-09T23:19:18.807Z,76.47
2018-02-09T23:21:47.768Z,80.97
2018-02-09T23:24:15.792Z,76.53
2018-02-09T23:26:44.536Z,71.10
2018-02-09T23:29:12.698Z,64.17
2018-02-09T23:31:40.756Z,60.87
2018-02-09T23:34:08.880Z,59.03
2018-02-09T23:36:37.046Z,59.07
2018-02-09T23:39:05.215Z,63.57
2018-02-09T23:41:33.327Z,63.60
2018-02-09T23:44:02.205Z,63.37
2018-02-09T23:46:30.964Z,64.57
2018-02-09T23:48:58.962Z,62.17
2018-02-09T23:51:27.067Z,64.13
2018-02-09T23:53:55.052Z,63.77
2018-02-09T23:56:23.040Z,64.10
2018-02-09T23:58:51.193Z,61.20
